Guntersville Observed Data For Previous 48 Hours

Caption
Day and Hour Reservoir Elevation (behind dam)* Tailwater Elevation (below dam)* Average Hourly Discharge*
9/20/2018 1 AM CDT 593.95 556.37 24,455
9/20/2018 2 AM CDT 594.00 555.99 18,904
9/20/2018 3 AM CDT 594.04 555.65 12,458
9/20/2018 4 AM CDT 594.05 555.58 12,241
9/20/2018 5 AM CDT 594.06 555.58 12,347
9/20/2018 6 AM CDT 594.07 555.62 12,285
9/20/2018 7 AM CDT 594.02 556.27 22,567
9/20/2018 8 AM CDT 593.99 556.36 24,146
9/20/2018 9 AM CDT 593.98 556.40 24,454
9/20/2018 10 AM CDT 593.95 556.38 24,421
9/20/2018 11 AM CDT 593.88 556.36 24,423
9/20/2018 12 PM CDT 593.91 556.30 24,490
9/20/2018 1 PM CDT 593.74 557.55 37,948
9/20/2018 2 PM CDT 593.80 557.69 45,633
9/20/2018 3 PM CDT 593.70 557.86 45,625
9/20/2018 4 PM CDT 593.73 557.93 45,582
9/20/2018 5 PM CDT 593.75 558.01 45,572
9/20/2018 6 PM CDT 593.75 558.00 45,617
9/20/2018 7 PM CDT 593.71 557.98 45,546
9/20/2018 8 PM CDT 593.85 556.60 25,191
9/20/2018 9 PM CDT 593.85 556.36 24,345
9/20/2018 10 PM CDT 593.87 556.07 24,048
9/20/2018 11 PM CDT 593.91 555.93 24,234
9/21/2018 12 AM CDT 593.92 555.84 24,312
9/21/2018 1 AM CDT 594.01 555.77 24,242
9/21/2018 2 AM CDT 594.09 555.81 24,098
9/21/2018 3 AM CDT 594.12 555.82 24,192
9/21/2018 4 AM CDT 594.15 555.86 24,299
9/21/2018 5 AM CDT 594.02 556.47 25,866
9/21/2018 6 AM CDT 594.11 557.34 45,609
9/21/2018 7 AM CDT 594.07 557.53 45,758
9/21/2018 8 AM CDT 594.08 557.69 45,752
9/21/2018 9 AM CDT 594.08 557.76 45,728
9/21/2018 10 AM CDT 594.06 557.80 45,620
9/21/2018 11 AM CDT 594.03 557.82 45,650
9/21/2018 12 PM CDT 593.99 557.85 45,697
9/21/2018 1 PM CDT 593.98 557.87 45,729
9/21/2018 2 PM CDT 593.97 557.92 45,688
9/21/2018 3 PM CDT 593.93 557.98 45,636
9/21/2018 4 PM CDT 593.96 557.93 45,670
9/21/2018 5 PM CDT 593.94 557.90 45,643
9/21/2018 6 PM CDT 593.94 557.87 45,715
9/21/2018 7 PM CDT 593.91 557.84 45,743
9/21/2018 8 PM CDT 593.88 557.92 45,760
9/21/2018 9 PM CDT 593.89 557.80 45,733
9/21/2018 10 PM CDT 593.89 557.77 45,733
9/21/2018 11 PM CDT 593.91 557.74 45,732
9/22/2018 12 AM CDT 593.93 557.74 45,779
9/22/2018 1 AM CDT 594.10 556.37 25,591
9/22/2018 2 AM CDT 594.11 556.20 24,589
9/22/2018 3 AM CDT 594.14 555.99 24,379
9/22/2018 4 AM CDT 594.16 555.93 24,477

Elevations are in feet above sea level. Discharges are in cubic feet per second and are reported at the end of the hour.